Time;durP1;ratioP1;P1;durP2;ratioP2;P2;SDS_P1;SDS_P2;PMS_P1;PMS_P2;Temp;Humidity;BMP_temperature;BMP_pressure;BME280_temperature;BME280_humidity;BME280_pressure;Samples;Min_cycle;Max_cycle;Signal;HPM_P1;HPM_P2
2021/06/25 05:06:33;;;;;;;;;31.25;29.50;;;;;17.07;56.02;101737.63;6163282;22;46460;-87
2021/06/25 05:09:00;;;;;;;;;24.00;23.00;;;;;17.02;55.89;101721.66;6212267;22;47402;-84
2021/06/25 05:11:25;;;;;;;;;25.25;24.75;;;;;17.11;56.05;101734.97;6214457;22;45453;-84
2021/06/25 05:13:50;;;;;;;;;29.25;27.00;;;;;17.18;55.93;101732.38;6212669;22;45260;-82
2021/06/25 05:16:16;;;;;;;;;27.75;26.00;;;;;17.21;55.90;101735.09;6213911;22;45357;-83
2021/06/25 05:18:42;;;;;;;;;27.25;25.50;;;;;17.22;55.18;101728.88;6213389;22;45625;-84
2021/06/25 05:21:08;;;;;;;;;27.00;25.75;;;;;17.24;55.48;101730.66;6214506;22;45364;-83
2021/06/25 05:23:34;;;;;;;;;33.00;27.50;;;;;17.29;55.46;101735.13;6214601;22;45403;-83
2021/06/25 05:25:59;;;;;;;;;29.50;29.00;;;;;17.30;55.18;101735.13;6218823;22;45347;-80
2021/06/25 05:28:25;;;;;;;;;28.50;27.00;;;;;17.32;55.34;101735.16;6224008;22;46090;-80
2021/06/25 05:30:50;;;;;;;;;29.25;26.00;;;;;17.34;55.39;101733.38;6224333;22;45382;-81
2021/06/25 05:33:15;;;;;;;;;29.00;25.50;;;;;17.34;55.41;101736.91;6224648;22;45337;-82
2021/06/25 05:35:42;;;;;;;;;34.25;28.25;;;;;17.38;55.28;101742.25;6226495;22;45525;-84
2021/06/25 05:38:13;;;;;;;;;30.00;25.00;;;;;17.41;54.97;101742.28;6189682;22;47598;-84
2021/06/25 05:40:39;;;;;;;;;26.25;23.25;;;;;17.42;54.90;101739.63;6187497;22;45271;-83
2021/06/25 05:43:05;;;;;;;;;28.75;26.00;;;;;17.41;54.84;101735.19;6214358;22;45426;-80
2021/06/25 05:45:33;;;;;;;;;26.75;23.00;;;;;17.45;55.31;101738.75;6213978;22;45276;-84
2021/06/25 05:47:58;;;;;;;;;31.50;26.25;;;;;17.46;54.81;101737.88;6214197;22;45351;-81
2021/06/25 05:50:24;;;;;;;;;27.50;26.50;;;;;17.47;54.56;101732.53;6214106;22;45367;-83
2021/06/25 05:52:49;;;;;;;;;31.50;28.00;;;;;17.44;54.50;101732.56;6213969;22;45284;-83
2021/06/25 05:55:15;;;;;;;;;31.00;28.50;;;;;17.50;54.65;101744.97;6214348;22;45249;-80
2021/06/25 05:57:42;;;;;;;;;28.00;27.00;;;;;17.51;54.31;101741.44;6214330;22;45331;-90
2021/06/25 06:00:09;;;;;;;;;31.00;28.50;;;;;17.48;54.29;101741.41;6213074;22;46057;-89
2021/06/25 06:02:34;;;;;;;;;30.75;26.25;;;;;17.46;54.35;101727.22;6215607;22;45285;-90
2021/06/25 06:05:00;;;;;;;;;29.50;28.25;;;;;17.45;54.83;101728.13;6188302;22;45380;-89
2021/06/25 06:07:26;;;;;;;;;30.25;27.25;;;;;17.46;54.65;101728.13;6182255;23;47149;-90
2021/06/25 06:09:52;;;;;;;;;24.75;24.75;;;;;17.55;55.10;101734.38;6184996;23;45274;-90
2021/06/25 06:12:18;;;;;;;;;27.75;25.25;;;;;17.47;55.21;101719.25;6158243;23;45302;-90
2021/06/25 06:14:43;;;;;;;;;31.25;25.25;;;;;17.45;54.93;101722.81;6190638;23;45440;-90
2021/06/25 06:17:09;;;;;;;;;23.25;23.25;;;;;17.56;54.76;101731.69;6200899;23;45386;-90
2021/06/25 06:19:43;;;;;;;;;27.75;24.50;;;;;17.52;54.57;101721.03;6199992;23;44695;-90
2021/06/25 06:33:10;;;;;;;;;25.00;23.75;;;;;17.58;54.63;101718.41;6184378;23;45266;-90
2021/06/25 06:35:37;;;;;;;;;26.75;23.00;;;;;17.58;54.38;101714.00;6182548;23;45403;-90
2021/06/25 06:38:04;;;;;;;;;23.75;21.75;;;;;17.67;54.89;101722.88;6182410;23;48025;-90
2021/06/25 06:40:31;;;;;;;;;25.00;21.75;;;;;17.69;54.48;101722.00;6157421;23;45367;-89
2021/06/25 06:43:08;;;;;;;;;31.25;25.00;;;;;17.63;54.53;101706.03;6182648;23;45218;-90
2021/06/25 06:45:35;;;;;;;;;23.75;23.00;;;;;17.76;54.01;101714.94;6182785;23;45310;-90
2021/06/25 06:48:01;;;;;;;;;25.75;24.00;;;;;17.79;54.30;101716.69;6184461;23;45453;-89
2021/06/25 06:50:26;;;;;;;;;25.75;23.25;;;;;17.78;54.56;101709.63;6157623;23;45394;-90
2021/06/25 06:52:52;;;;;;;;;28.00;23.75;;;;;17.91;54.21;101721.19;6182801;23;45323;-90
2021/06/25 06:55:20;;;;;;;;;28.00;22.75;;;;;17.98;54.52;101716.78;6184780;23;45278;-89
2021/06/25 06:57:46;;;;;;;;;26.00;24.00;;;;;17.94;54.13;101703.47;6182419;23;47128;-90
2021/06/25 07:00:13;;;;;;;;;23.00;21.75;;;;;17.98;53.66;101716.78;6182486;23;45317;-90
2021/06/25 07:02:40;;;;;;;;;26.00;21.25;;;;;17.99;53.53;101706.13;6184461;23;45283;-89
2021/06/25 07:05:10;;;;;;;;;24.50;23.25;;;;;18.14;54.30;101721.25;6181866;23;45417;-89
2021/06/25 07:07:36;;;;;;;;;24.75;22.25;;;;;18.06;53.54;101704.38;6156716;23;47262;-89
2021/06/25 07:10:04;;;;;;;;;21.00;21.00;;;;;18.26;53.48;101730.16;6157743;23;45273;-89
2021/06/25 07:12:29;;;;;;;;;24.50;22.75;;;;;18.21;53.73;101723.94;6159786;23;45303;-90
2021/06/25 07:14:55;;;;;;;;;23.67;22.00;;;;;18.18;53.15;101716.84;6186806;23;45313;-89
2021/06/25 07:17:20;;;;;;;;;27.00;25.00;;;;;18.17;53.54;101715.94;6186255;23;45472;-89
2021/06/25 07:19:48;;;;;;;;;25.75;21.50;;;;;18.14;53.43;101702.63;6187279;23;45351;-89
2021/06/25 07:22:13;;;;;;;;;19.25;16.25;;;;;18.19;53.71;101715.94;6161377;23;45359;-89
2021/06/25 07:24:38;;;;;;;;;21.00;19.00;;;;;18.24;53.42;101703.53;6171905;23;45443;-89
2021/06/25 07:27:05;;;;;;;;;21.00;18.75;;;;;18.27;53.21;101708.84;6171284;23;48022;-91
2021/06/25 07:29:31;;;;;;;;;23.50;22.25;;;;;18.32;53.09;101703.53;6167683;23;45168;-89
2021/06/25 07:31:56;;;;;;;;;23.67;20.33;;;;;18.41;52.92;101702.66;6199393;23;45389;-90
2021/06/25 07:34:22;;;;;;;;;23.00;21.00;;;;;18.48;52.96;101708.88;6173448;23;44822;-90
2021/06/25 07:36:47;;;;;;;;;21.67;20.00;;;;;18.46;52.59;101681.38;6193541;23;47229;-90
2021/06/25 07:39:15;;;;;;;;;26.67;22.67;;;;;18.60;52.87;101703.53;6159183;23;45291;-89
2021/06/25 07:41:40;;;;;;;;;21.25;18.75;;;;;18.56;52.99;101683.13;6160237;23;45347;-90
2021/06/25 07:44:06;;;;;;;;;28.25;25.50;;;;;18.69;52.96;101683.13;6183164;23;45404;-89
2021/06/25 07:46:32;;;;;;;;;25.50;21.75;;;;;18.81;52.29;101693.75;6159283;23;48158;-89
2021/06/25 07:48:57;;;;;;;;;23.25;21.75;;;;;18.96;52.51;101719.47;6185805;23;45345;-90
2021/06/25 07:51:22;;;;;;;;;20.75;20.25;;;;;18.90;52.46;101690.19;6159255;23;45351;-91
2021/06/25 07:53:58;;;;;;;;;;;;;;;;;;;;;
2021/06/25 07:56:24;;;;;;;;;24.75;23.50;;;;;19.09;51.57;101692.81;6183220;23;76004;-91
2021/06/25 07:58:49;;;;;;;;;27.00;24.00;;;;;19.06;51.70;101685.69;6183013;23;45412;-90
2021/06/25 08:01:15;;;;;;;;;28.50;24.75;;;;;19.22;51.71;101699.03;6158610;23;45405;-90
2021/06/25 08:03:40;;;;;;;;;27.50;23.50;;;;;19.12;51.74;101668.78;6185492;23;45080;-90
2021/06/25 08:06:06;;;;;;;;;29.00;21.75;;;;;19.12;51.84;101674.13;6157379;23;47180;-90
2021/06/25 08:08:32;;;;;;;;;26.25;23.00;;;;;19.20;51.54;101669.72;6157141;23;45261;-89
2021/06/25 08:10:58;;;;;;;;;23.50;21.00;;;;;19.38;51.91;101688.28;6185686;23;45249;-90
2021/06/25 08:13:23;;;;;;;;;27.00;21.00;;;;;19.35;51.69;101662.53;6157803;23;45346;-90
2021/06/25 08:15:49;;;;;;;;;24.75;22.50;;;;;19.59;51.82;101684.63;6185877;23;45934;-89
2021/06/25 08:18:19;;;;;;;;;21.00;20.25;;;;;19.55;51.31;101667.75;6158364;23;45232;-90
2021/06/25 08:20:45;;;;;;;;;24.50;21.25;;;;;19.69;50.47;101672.16;6185069;23;45466;-89
2021/06/25 08:23:12;;;;;;;;;25.33;19.67;;;;;19.97;50.85;101687.97;6185926;23;45257;-89
2021/06/25 08:25:38;;;;;;;;;26.25;19.50;;;;;19.95;50.92;101656.84;6158141;23;47641;-89
2021/06/25 08:28:05;;;;;;;;;22.00;19.75;;;;;20.13;50.66;101674.56;6184886;23;45139;-89
2021/06/25 08:30:31;;;;;;;;;22.00;20.33;;;;;20.29;50.07;101682.44;6185692;23;45252;-89
2021/06/25 08:32:57;;;;;;;;;27.25;24.00;;;;;20.27;50.09;101650.41;6186058;23;45345;-90
2021/06/25 08:35:25;;;;;;;;;23.00;21.33;;;;;20.30;49.29;101649.50;6161154;23;46951;-90
2021/06/25 08:37:52;;;;;;;;;23.00;21.00;;;;;20.40;49.21;101658.31;6189106;23;45215;-90
2021/06/25 08:40:18;;;;;;;;;27.00;20.67;;;;;20.55;50.29;101666.19;6185144;23;45206;-90
2021/06/25 08:42:44;;;;;;;;;24.50;20.25;;;;;20.65;48.92;101663.41;6159835;23;45418;-90
2021/06/25 08:45:12;;;;;;;;;19.33;17.67;;;;;20.59;49.91;101632.31;6159125;23;47332;-90
2021/06/25 08:47:43;;;;;;;;;21.00;19.67;;;;;20.82;49.70;101648.09;6159329;23;45410;-89
2021/06/25 08:50:11;;;;;;;;;26.67;22.33;;;;;20.91;48.58;101633.75;6158330;23;45264;-90
2021/06/25 08:52:37;;;;;;;;;22.00;20.33;;;;;21.49;48.31;101666.94;6195411;23;45208;-89
2021/06/25 08:55:06;;;;;;;;;19.00;18.33;;;;;22.00;47.41;101661.78;6181170;23;47965;-89
2021/06/25 08:57:35;;;;;;;;;19.67;19.67;;;;;22.46;46.69;101664.59;6174676;23;45175;-90
2021/06/25 09:00:03;;;;;;;;;23.67;20.33;;;;;22.83;46.90;101660.34;6210628;23;44783;-89
2021/06/25 09:02:36;;;;;;;;;19.00;16.00;;;;;23.24;46.28;101650.59;6209173;23;45287;-88
2021/06/25 09:05:03;;;;;;;;;20.00;16.00;;;;;23.46;45.31;101644.78;6204487;23;45195;-89
2021/06/25 09:07:47;;;;;;;;;17.00;15.33;;;;;23.51;45.06;101651.84;6178907;23;45456;-89
2021/06/25 09:10:15;;;;;;;;;25.25;19.25;;;;;23.52;44.62;101645.56;6189246;23;45360;-89
2021/06/25 09:13:07;;;;;;;;;17.33;16.33;;;;;23.41;44.99;101640.41;6191762;23;44921;-89
2021/06/25 09:15:34;;;;;;;;;20.67;17.67;;;;;23.22;44.46;101630.97;6187076;22;45394;-89
2021/06/25 09:18:04;;;;;;;;;17.67;16.67;;;;;23.07;44.61;101625.94;6185036;23;45337;-91
2021/06/25 09:20:42;;;;;;;;;19.67;16.67;;;;;23.12;44.78;101643.69;6187728;23;45197;-90
2021/06/25 09:23:39;;;;;;;;;15.33;15.33;;;;;23.26;45.00;101647.88;6188588;23;45474;-89
2021/06/25 09:26:09;;;;;;;;;17.33;16.00;;;;;23.65;44.60;101630.94;6198652;23;47221;-89
2021/06/25 09:28:41;;;;;;;;;16.33;15.00;;;;;23.80;44.56;101628.81;6209902;22;44632;-89
2021/06/25 09:31:13;;;;;;;;;16.00;15.00;;;;;23.86;43.90;101630.47;6234402;22;44656;-89
2021/06/25 09:33:44;;;;;;;;;15.00;13.67;;;;;23.67;43.77;101633.59;6231180;22;45311;-89
2021/06/25 09:36:21;;;;;;;;;20.00;18.67;;;;;23.54;44.21;101624.97;6184916;23;47286;-89
2021/06/25 09:38:57;;;;;;;;;14.33;14.00;;;;;23.51;44.63;101625.00;6187332;23;45279;-89
2021/06/25 09:41:22;;;;;;;;;17.33;15.33;;;;;23.46;44.67;101609.91;6186545;22;45424;-90
2021/06/25 09:43:58;;;;;;;;;17.67;14.33;;;;;23.67;43.90;101634.47;6184843;22;45256;-89
2021/06/25 09:46:32;;;;;;;;;20.00;18.33;;;;;23.67;44.51;101618.38;6208449;22;47431;-89
2021/06/25 09:49:01;;;;;;;;;15.33;15.33;;;;;23.66;44.97;101608.56;6184974;23;45340;-90
2021/06/25 09:51:28;;;;;;;;;17.33;15.33;;;;;23.80;44.12;101616.28;6184770;23;45212;-91
2021/06/25 09:54:06;;;;;;;;;15.00;14.33;;;;;23.97;44.13;101616.75;6186588;23;45204;-90
2021/06/25 09:56:35;;;;;;;;;13.67;13.67;;;;;24.08;44.35;101613.81;6208619;22;46965;-90
2021/06/25 10:01:58;;;;;;;;;13.00;13.00;;;;;24.38;43.15;101604.13;6185629;22;45455;-90
2021/06/25 10:04:37;;;;;;;;;13.67;11.67;;;;;24.55;44.11;101605.44;6185736;23;45377;-90
2021/06/25 10:07:16;;;;;;;;;13.00;13.00;;;;;24.77;43.30;101615.56;6208381;22;47049;-89
2021/06/25 10:09:44;;;;;;;;;11.33;10.00;;;;;24.64;43.11;101610.56;6184925;22;45280;-90
2021/06/25 10:12:11;;;;;;;;;15.00;13.00;;;;;24.61;43.05;101605.28;6208538;22;45284;-91
2021/06/25 10:14:37;;;;;;;;;13.67;12.33;;;;;24.59;42.93;101598.19;6184483;23;45389;-90
2021/06/25 10:17:05;;;;;;;;;11.00;11.00;;;;;24.47;42.80;101597.59;6210256;22;47060;-90
2021/06/25 10:19:51;;;;;;;;;12.33;11.33;;;;;24.45;42.88;101603.94;6189218;23;45357;-91
2021/06/25 10:22:25;;;;;;;;;12.67;10.00;;;;;24.52;44.13;101610.91;6188838;23;45257;-91
2021/06/25 10:24:52;;;;;;;;;13.00;13.00;;;;;24.59;44.03;101609.81;6192229;23;45475;-90
2021/06/25 10:27:21;;;;;;;;;12.67;10.67;;;;;24.56;42.98;101595.59;6192001;23;47170;-89
2021/06/25 10:29:48;;;;;;;;;9.00;8.33;;;;;24.56;43.31;101609.03;6212668;22;45878;-90
2021/06/25 10:32:16;;;;;;;;;7.33;7.33;;;;;24.40;42.74;101594.22;6208845;22;45348;-91
2021/06/25 10:34:43;;;;;;;;;10.00;10.00;;;;;24.29;43.81;101583.75;6186039;23;45288;-90
2021/06/25 10:37:13;;;;;;;;;6.00;6.00;;;;;24.36;43.42;101591.63;6183756;23;47304;-90
2021/06/25 10:39:39;;;;;;;;;9.00;7.33;;;;;24.22;43.71;101578.56;6182748;23;45457;-89
2021/06/25 10:42:11;;;;;;;;;7.00;7.00;;;;;24.16;43.56;101582.25;6208365;22;45387;-89
2021/06/25 10:44:43;;;;;;;;;7.67;7.00;;;;;24.18;44.00;101602.78;6183554;23;45397;-90
2021/06/25 10:47:33;;;;;;;;;8.33;8.33;;;;;23.97;43.58;101581.84;6185091;22;46188;-91
2021/06/25 10:49:59;;;;;;;;;6.00;6.00;;;;;23.99;43.78;101593.44;6183604;23;45356;-90
2021/06/25 10:52:39;;;;;;;;;6.00;6.00;;;;;23.82;43.55;101590.28;6209131;22;45532;-90
2021/06/25 10:55:09;;;;;;;;;8.00;6.33;;;;;23.88;44.29;101593.75;6185627;22;45325;-90
2021/06/25 10:57:36;;;;;;;;;6.67;6.67;;;;;23.89;44.06;101596.38;6209478;22;47113;-89
2021/06/25 11:00:05;;;;;;;;;9.00;7.00;;;;;23.85;44.04;101592.00;6183558;23;45321;-90
2021/06/25 11:02:40;;;;;;;;;10.33;7.00;;;;;23.75;45.15;101571.69;6183547;23;45211;-90
2021/06/25 11:05:29;;;;;;;;;8.00;7.00;;;;;23.69;44.83;101568.22;6218270;22;45399;-91
2021/06/25 11:07:56;;;;;;;;;7.67;7.00;;;;;23.61;45.41;101556.78;6191392;23;45288;-90
2021/06/25 11:10:29;;;;;;;;;8.00;6.67;;;;;23.56;45.48;101566.78;6203994;23;44821;-90
2021/06/25 11:13:13;;;;;;;;;7.00;6.00;;;;;23.63;44.98;101588.94;6199860;23;45365;-92
2021/06/25 11:15:40;;;;;;;;;9.00;6.33;;;;;23.50;46.16;101588.38;6212637;22;45430;-91
2021/06/25 11:18:18;;;;;;;;;7.67;7.00;;;;;23.51;45.95;101598.19;6185981;22;46295;-91
2021/06/25 11:20:52;;;;;;;;;5.67;5.67;;;;;23.44;46.61;101590.25;6208245;22;45717;-90
2021/06/25 11:23:24;;;;;;;;;7.33;7.33;;;;;23.32;46.59;101583.38;6208361;22;45291;-91
2021/06/25 11:25:51;;;;;;;;;8.00;8.00;;;;;23.31;47.07;101595.00;6183406;23;45309;-91
2021/06/25 11:28:22;;;;;;;;;9.00;7.33;;;;;23.26;47.26;101591.56;6207976;22;47306;-90
2021/06/25 11:30:50;;;;;;;;;7.00;7.00;;;;;23.19;47.32;101589.91;6208234;22;45826;-90
2021/06/25 11:33:31;;;;;;;;;8.67;6.33;;;;;23.11;48.00;101582.03;6208588;22;45342;-91
2021/06/25 11:36:21;;;;;;;;;7.33;7.33;;;;;23.08;48.50;101595.50;6183694;23;45377;-91
2021/06/25 11:39:04;;;;;;;;;8.00;7.33;;;;;23.01;48.86;101600.16;6182943;23;47390;-91
2021/06/25 11:41:47;;;;;;;;;8.33;7.00;;;;;22.84;49.83;101584.41;6207941;22;45371;-90
2021/06/25 11:44:19;;;;;;;;;7.00;7.00;;;;;22.69;50.38;101574.88;6208211;22;45280;-90
2021/06/25 11:47:04;;;;;;;;;7.33;7.33;;;;;22.64;50.96;101583.88;6187729;23;45317;-91
2021/06/25 11:49:44;;;;;;;;;8.33;8.33;;;;;22.55;50.63;101579.56;6200001;23;48183;-90
2021/06/25 11:52:18;;;;;;;;;9.67;8.33;;;;;22.54;50.91;101588.53;6217472;22;45308;-91
2021/06/25 11:54:57;;;;;;;;;7.33;6.67;;;;;22.42;51.86;101575.38;6184633;22;45339;-91
2021/06/25 11:57:25;;;;;;;;;9.67;7.00;;;;;22.50;51.18;101591.28;6207770;22;45283;-91
2021/06/25 12:00:03;;;;;;;;;8.33;7.67;;;;;22.50;51.03;101602.91;6184528;22;45275;-91
2021/06/25 12:02:41;;;;;;;;;7.67;7.67;;;;;22.35;51.62;101581.75;6207318;22;45182;-91
2021/06/25 12:05:20;;;;;;;;;6.00;6.00;;;;;22.22;52.22;101576.63;6184350;23;45203;-90
2021/06/25 12:07:59;;;;;;;;;5.00;5.00;;;;;22.23;52.55;101597.09;6207855;22;45430;-91
2021/06/25 12:10:24;;;;;;;;;7.00;6.00;;;;;22.19;53.12;101592.72;6207385;22;46853;-91
2021/06/25 12:12:57;;;;;;;;;6.33;6.33;;;;;22.11;53.30;101595.53;6208602;22;45362;-91
2021/06/25 12:15:22;;;;;;;;;7.33;6.00;;;;;22.08;53.90;101607.19;6182208;23;45399;-91
2021/06/25 12:17:50;;;;;;;;;8.00;6.00;;;;;21.98;54.09;101586.84;6184370;23;45305;-91
2021/06/25 12:20:23;;;;;;;;;8.67;7.67;;;;;22.02;54.45;101601.94;6181717;23;47110;-91
2021/06/25 12:23:03;;;;;;;;;9.00;7.67;;;;;21.99;55.22;101618.06;6182216;23;45403;-91
2021/06/25 12:25:50;;;;;;;;;11.50;8.00;;;;;21.88;55.66;101588.78;6184439;22;45301;-91
2021/06/25 12:28:22;;;;;;;;;10.00;7.67;;;;;21.83;55.83;101598.63;6182017;23;45485;-91
2021/06/25 12:30:51;;;;;;;;;9.33;9.33;;;;;21.87;56.34;101608.44;6181834;23;48170;-91
2021/06/25 12:33:24;;;;;;;;;7.00;7.00;;;;;21.68;57.05;101583.75;6181795;23;45514;-90
2021/06/25 12:35:56;;;;;;;;;10.00;8.00;;;;;21.77;56.93;101604.97;6181785;23;45202;-90
2021/06/25 12:38:25;;;;;;;;;9.33;8.00;;;;;21.60;56.91;101583.84;6182009;23;45297;-91
2021/06/25 12:40:53;;;;;;;;;7.67;7.67;;;;;21.68;58.07;101599.78;6206961;22;46822;-90
2021/06/25 12:43:18;;;;;;;;;11.00;10.00;;;;;21.64;58.55;101589.13;6207200;22;45439;-91
2021/06/25 12:45:52;;;;;;;;;8.33;8.00;;;;;21.59;58.56;101582.97;6207313;22;45999;-91
2021/06/25 12:48:22;;;;;;;;;10.33;9.00;;;;;21.52;59.04;101566.13;6185412;22;45415;-90
2021/06/25 12:50:53;;;;;;;;;10.00;9.67;;;;;21.59;59.37;101572.28;6207949;22;47106;-91
2021/06/25 12:53:28;;;;;;;;;10.67;9.00;;;;;21.73;59.50;101576.50;6184138;23;45388;-91
2021/06/25 12:55:56;;;;;;;;;7.33;7.33;;;;;21.77;58.13;101559.50;6184509;23;45395;-90
2021/06/25 12:58:22;;;;;;;;;10.00;8.33;;;;;21.86;58.64;101567.41;6207394;22;45475;-90
2021/06/25 13:00:54;;;;;;;;;8.33;7.00;;;;;21.79;58.99;101557.66;6182606;23;48154;-90
2021/06/25 13:03:20;;;;;;;;;7.00;7.00;;;;;21.73;58.17;101553.31;6195101;23;45531;-91
2021/06/25 13:05:46;;;;;;;;;6.33;6.33;;;;;21.79;57.76;101576.41;6227731;22;45363;-91
2021/06/25 13:08:30;;;;;;;;;8.33;7.00;;;;;21.65;58.42;101568.63;6203964;23;45095;-90
2021/06/25 13:11:17;;;;;;;;;6.00;6.00;;;;;21.61;58.79;101578.50;6207262;23;45246;-90
2021/06/25 13:13:42;;;;;;;;;5.67;5.67;;;;;21.43;58.75;101546.69;6205711;23;45214;-91
2021/06/25 13:16:12;;;;;;;;;8.33;7.00;;;;;21.53;60.48;101556.31;6176979;23;44688;-91
2021/06/25 13:18:42;;;;;;;;;7.00;7.00;;;;;21.52;60.71;101562.56;6174692;23;45285;-91
2021/06/25 13:22:01;;;;;;;;;5.00;5.00;;;;;21.61;60.72;101569.56;6188135;23;45995;-90
2021/06/25 13:24:37;;;;;;;;;4.00;4.00;;;;;21.56;60.54;101564.28;6128618;23;45425;-91
2021/06/25 13:27:07;;;;;;;;;9.00;6.33;;;;;21.58;60.71;101562.47;6053644;23;45313;-91
2021/06/25 13:29:48;;;;;;;;;4.67;4.67;;;;;21.51;59.74;101550.97;6127302;23;45281;-91
2021/06/25 13:32:16;;;;;;;;;6.00;6.00;;;;;21.49;60.23;101555.47;6132271;23;46604;-91
2021/06/25 13:34:56;;;;;;;;;4.67;4.00;;;;;21.57;60.11;101566.06;6110326;23;46272;-91
2021/06/25 13:37:57;;;;;;;;;4.00;4.00;;;;;21.53;60.56;101569.69;6106082;23;45293;-90
2021/06/25 13:40:44;;;;;;;;;3.33;3.33;;;;;21.47;59.83;101551.06;5986112;23;45279;-91
2021/06/25 13:43:14;;;;;;;;;3.67;3.33;;;;;21.45;59.64;101537.69;5968671;23;47938;-89
2021/06/25 13:45:41;;;;;;;;;5.00;4.33;;;;;21.42;60.45;101532.41;5996730;23;44809;-90
2021/06/25 13:48:23;;;;;;;;;11.00;6.00;;;;;21.57;60.25;101554.47;6001216;23;45144;-90
2021/06/25 13:51:00;;;;;;;;;1.00;1.00;;;;;21.52;59.80;101543.84;6000117;23;45312;-90
2021/06/25 13:53:39;;;;;;;;;3.33;3.33;;;;;21.57;59.85;101555.38;5976975;23;47076;-90
2021/06/25 13:56:09;;;;;;;;;3.00;3.00;;;;;21.50;60.46;101527.81;5999607;23;45178;-92
2021/06/25 13:58:50;;;;;;;;;4.00;4.00;;;;;21.58;60.05;101527.69;6007954;23;45283;-91
2021/06/25 14:01:21;;;;;;;;;1.33;1.33;;;;;21.64;60.07;101542.75;6057143;23;45317;-90
2021/06/25 14:04:08;;;;;;;;;2.00;2.00;;;;;21.73;59.78;101547.06;6043271;23;45433;-91
2021/06/25 14:06:48;;;;;;;;;2.00;2.00;;;;;21.67;59.80;101529.34;6013949;23;45348;-90
2021/06/25 14:09:20;;;;;;;;;2.67;1.33;;;;;21.77;60.03;101530.06;6038351;23;45420;-91
2021/06/25 14:11:46;;;;;;;;;2.00;2.00;;;;;21.70;59.48;101517.72;6037727;23;45647;-92
2021/06/25 14:14:12;;;;;;;;;2.67;2.00;;;;;21.80;59.92;101524.66;6011929;23;47118;-92
2021/06/25 14:16:38;;;;;;;;;3.00;3.00;;;;;21.92;59.71;101546.78;6156738;23;45400;-91
2021/06/25 14:19:09;;;;;;;;;1.00;1.00;;;;;21.82;59.65;101508.56;6186444;23;45363;-91
2021/06/25 14:21:36;;;;;;;;;1.00;1.00;;;;;21.89;59.90;101509.38;6159029;23;45449;-91
2021/06/25 14:24:08;;;;;;;;;1.00;1.00;;;;;22.01;59.43;101519.88;6159231;23;47204;-91
2021/06/25 14:26:33;;;;;;;;;4.67;1.67;;;;;21.97;59.31;101503.00;6159481;23;45258;-90
2021/06/25 14:29:00;;;;;;;;;2.00;1.00;;;;;22.09;59.56;101514.38;6190347;23;45190;-91
2021/06/25 14:31:27;;;;;;;;;3.00;1.00;;;;;22.18;58.83;101524.91;6164841;23;45528;-90
2021/06/25 14:33:53;;;;;;;;;0.67;0.67;;;;;22.18;58.83;101510.63;6165342;23;47078;-90
2021/06/25 14:36:21;;;;;;;;;0.67;0.67;;;;;22.12;58.67;101490.22;6205906;23;44754;-90
2021/06/25 14:38:50;;;;;;;;;0.67;0.00;;;;;22.13;58.00;101480.38;6185336;23;44624;-91
2021/06/25 14:41:16;;;;;;;;;0.00;0.00;;;;;22.17;58.36;101487.44;6212111;23;44768;-91
2021/06/25 14:43:42;;;;;;;;;0.00;0.00;;;;;22.28;59.13;101497.94;6193847;23;47089;-91
2021/06/25 14:46:08;;;;;;;;;1.00;1.00;;;;;22.32;59.00;101497.88;6160848;23;45330;-90
2021/06/25 14:48:35;;;;;;;;;2.00;0.67;;;;;22.31;59.18;101481.84;6160177;23;45433;-90
2021/06/25 14:51:02;;;;;;;;;1.33;1.00;;;;;22.45;58.89;101500.28;6186418;23;45329;-90
2021/06/25 14:53:28;;;;;;;;;0.00;0.00;;;;;22.39;58.71;101477.19;6159811;23;48258;-90
2021/06/25 14:55:53;;;;;;;;;0.67;0.67;;;;;22.44;58.06;101482.47;6159301;23;45382;-90
2021/06/25 14:58:19;;;;;;;;;0.67;0.67;;;;;22.50;58.10;101484.13;6158381;23;45416;-91
2021/06/25 15:00:46;;;;;;;;;0.00;0.00;;;;;22.59;58.66;101505.34;6159216;23;45288;-91
2021/06/25 15:03:13;;;;;;;;;1.00;1.00;;;;;22.50;58.18;101485.03;6157826;23;47167;-91
2021/06/25 15:05:39;;;;;;;;;0.33;0.00;;;;;22.60;58.25;101492.84;6184954;23;46179;-91
2021/06/25 15:08:07;;;;;;;;;2.00;0.33;;;;;22.45;58.58;101470.81;6184709;23;45349;-92
2021/06/25 15:10:32;;;;;;;;;0.33;0.33;;;;;22.49;57.60;101475.19;6185290;23;45172;-91
2021/06/25 15:12:58;;;;;;;;;2.00;0.33;;;;;22.57;57.93;101488.44;6184697;23;45265;-91
2021/06/25 15:15:25;;;;;;;;;3.00;0.00;;;;;22.48;58.11;101467.22;6184890;23;45246;-91
2021/06/25 15:17:51;;;;;;;;;1.00;1.00;;;;;22.46;57.65;101467.25;6157472;23;45396;-91
2021/06/25 15:20:17;;;;;;;;;0.67;0.67;;;;;22.47;58.43;101469.00;6184656;23;45402;-91
2021/06/25 15:22:43;;;;;;;;;0.00;0.00;;;;;22.41;57.31;101461.97;6184200;23;46130;-91
2021/06/25 15:25:10;;;;;;;;;0.00;0.00;;;;;22.43;57.67;101461.94;6183528;23;45546;-91
2021/06/25 15:27:36;;;;;;;;;0.00;0.00;;;;;22.50;57.84;101477.00;6158027;23;45317;-91
2021/06/25 15:30:03;;;;;;;;;0.67;0.33;;;;;22.48;58.29;101477.94;6185444;23;45112;-91
2021/06/25 15:32:29;;;;;;;;;1.00;1.00;;;;;22.37;57.72;101454.94;6157233;23;47302;-90
2021/06/25 15:34:56;;;;;;;;;0.00;0.00;;;;;22.45;57.53;101462.78;6184539;23;45155;-91
2021/06/25 15:37:22;;;;;;;;;0.00;0.00;;;;;22.49;57.63;101466.28;6185032;23;45445;-89
2021/06/25 15:39:47;;;;;;;;;1.00;1.00;;;;;22.40;57.07;101446.81;6157580;23;45416;-90
2021/06/25 15:42:13;;;;;;;;;0.00;0.00;;;;;22.51;57.40;101459.09;6157829;23;47308;-90
2021/06/25 15:44:38;;;;;;;;;3.00;2.00;;;;;22.48;57.18;101453.81;6184179;23;45360;-90
2021/06/25 15:47:04;;;;;;;;;6.33;6.00;;;;;22.36;56.97;101438.91;6157460;23;45325;-91
2021/06/25 15:49:31;;;;;;;;;7.00;6.67;;;;;22.46;57.07;101439.56;6184804;23;45458;-90
2021/06/25 15:52:18;;;;;;;;;7.00;7.00;;;;;22.51;57.18;101448.38;6157357;23;47106;-90
2021/06/25 15:54:44;;;;;;;;;11.00;9.00;;;;;22.39;56.89;101430.78;6157074;23;45478;-90
2021/06/25 15:57:09;;;;;;;;;7.67;6.67;;;;;22.45;57.33;101433.31;6158079;23;45176;-91
2021/06/25 15:59:34;;;;;;;;;2.67;2.67;;;;;22.45;57.38;101433.31;6185136;23;45084;-86
2021/06/25 16:02:00;;;;;;;;;1.67;1.67;;;;;22.46;57.00;101432.44;6183161;23;45194;-86
2021/06/25 16:04:25;;;;;;;;;2.00;2.00;;;;;22.46;57.31;101442.25;6183399;23;45210;-86
2021/06/25 16:06:50;;;;;;;;;2.00;2.00;;;;;22.42;57.02;101446.78;6183122;23;45239;-85
2021/06/25 16:11:44;;;;;;;;;6.00;4.00;;;;;22.31;56.86;101442.56;6182211;23;45922;-85
2021/06/25 16:14:10;;;;;;;;;4.67;3.67;;;;;22.29;57.60;101455.06;6182732;23;45316;-85
2021/06/25 16:16:36;;;;;;;;;4.00;3.00;;;;;22.22;57.65;101437.38;6182821;23;45422;-83
2021/06/25 16:19:07;;;;;;;;;4.67;4.67;;;;;22.25;57.59;101445.31;6183355;23;45187;-86
2021/06/25 16:21:34;;;;;;;;;5.33;5.33;;;;;22.19;57.46;101429.38;6183032;23;46177;-86
2021/06/25 16:24:01;;;;;;;;;13.33;12.67;;;;;22.22;57.69;101440.06;6183218;23;45316;-85
2021/06/25 16:26:26;;;;;;;;;2.00;2.00;;;;;22.21;56.94;101435.59;6183835;23;45315;-85
2021/06/25 16:28:52;;;;;;;;;4.67;4.67;;;;;22.18;56.42;101435.66;6183846;23;45151;-83
2021/06/25 16:31:18;;;;;;;;;4.00;3.00;;;;;22.14;57.02;101439.31;6184046;23;45420;-86
2021/06/25 16:33:43;;;;;;;;;2.67;1.33;;;;;22.07;56.62;101428.75;6185411;23;45304;-84
2021/06/25 16:36:09;;;;;;;;;11.33;9.67;;;;;22.08;56.17;101430.50;6195357;23;45260;-86
2021/06/25 16:38:34;;;;;;;;;6.00;3.67;;;;;22.01;55.65;101431.53;6197903;23;45426;-86
2021/06/25 16:41:00;;;;;;;;;4.67;3.00;;;;;21.94;56.57;101427.19;6194219;23;45700;-85
2021/06/25 16:43:25;;;;;;;;;2.00;2.00;;;;;21.93;56.08;101420.09;6188551;23;45246;-86
2021/06/25 16:45:51;;;;;;;;;2.00;2.00;;;;;21.88;56.74;101422.84;6186067;23;45504;-85
2021/06/25 16:48:16;;;;;;;;;12.00;11.00;;;;;21.87;56.30;101415.75;6185354;23;45407;-84
2021/06/25 16:50:42;;;;;;;;;30.00;27.50;;;;;21.83;56.05;101414.91;6184464;23;46044;-85
2021/06/25 16:53:07;;;;;;;;;8.00;6.67;;;;;21.86;56.09;101417.53;6184330;23;45322;-83